Time;durP1;ratioP1;P1;durP2;ratioP2;P2;SDS_P1;SDS_P2;PMS_P1;PMS_P2;Temp;Humidity;BMP_temperature;BMP_pressure;BME280_temperature;BME280_humidity;BME280_pressure;Samples;Min_cycle;Max_cycle;Signal;HPM_P1;HPM_P2
2024/04/16 00:05:13;;;;;;;4.13;3.03;;;;;;;21.08;43.86;101068.16;11287174;26;20076;-85
2024/04/16 00:10:38;;;;;;;3.25;2.42;;;;;;;20.99;44.00;101058.53;11296648;26;20267;-85
2024/04/16 00:16:06;;;;;;;6.10;2.80;;;;;;;20.95;44.72;101051.44;11235781;26;20014;-86
2024/04/16 00:21:31;;;;;;;6.13;2.72;;;;;;;20.90;44.91;101053.34;11241937;26;20069;-84
2024/04/16 00:26:57;;;;;;;6.90;2.72;;;;;;;20.87;45.12;101037.31;11265825;26;20073;-84
2024/04/16 00:32:25;;;;;;;3.22;2.60;;;;;;;20.87;45.33;101044.50;11309137;26;20008;-86
2024/04/16 00:37:49;;;;;;;3.80;2.93;;;;;;;20.84;45.36;101040.06;11267848;26;20013;-86
2024/04/16 00:43:20;;;;;;;6.50;2.55;;;;;;;20.81;45.56;101036.56;11315620;26;19998;-84
2024/04/16 00:48:48;;;;;;;3.78;2.47;;;;;;;20.81;45.46;101028.50;11265732;26;19995;-86
2024/04/16 00:54:13;;;;;;;4.88;2.60;;;;;;;20.77;45.51;101029.50;11278061;26;21023;-84
2024/04/16 00:59:41;;;;;;;2.80;2.42;;;;;;;20.74;45.65;101029.59;11270559;26;20020;-86
2024/04/16 01:05:09;;;;;;;6.50;2.47;;;;;;;20.75;45.83;101031.31;11285964;26;19998;-85
2024/04/16 01:10:39;;;;;;;4.65;2.63;;;;;;;20.72;45.43;101018.88;11297366;26;20026;-86
2024/04/16 01:16:05;;;;;;;4.30;2.88;;;;;;;20.72;45.37;101010.84;11254118;26;20009;-86
2024/04/16 01:21:32;;;;;;;4.85;2.67;;;;;;;20.72;45.15;101009.94;11254090;26;20022;-86
2024/04/16 01:27:00;;;;;;;3.73;2.70;;;;;;;20.63;45.52;100995.81;11239004;26;20380;-85
2024/04/16 01:32:24;;;;;;;3.75;2.67;;;;;;;20.52;46.05;100995.16;11267739;26;20048;-85
2024/04/16 01:37:48;;;;;;;3.65;2.58;;;;;;;20.47;46.54;101002.44;11250808;26;20013;-84
2024/04/16 01:43:15;;;;;;;5.53;3.20;;;;;;;20.37;47.21;100989.22;11262630;26;20006;-87
2024/04/16 01:48:42;;;;;;;5.65;3.05;;;;;;;20.22;47.76;100983.22;11277018;26;20009;-86
2024/04/16 01:54:07;;;;;;;;;;;;;;;20.26;48.02;100978.72;11273481;26;19999;-85
2024/04/16 01:59:35;;;;;;;8.43;3.28;;;;;;;20.15;48.75;100978.91;11277130;26;19936;-85
2024/04/16 02:05:00;;;;;;;5.73;3.00;;;;;;;20.10;49.05;100975.44;11340870;26;19998;-84
2024/04/16 02:10:24;;;;;;;5.40;2.70;;;;;;;20.05;49.31;100971.97;11289890;26;20337;-86
2024/04/16 02:15:53;;;;;;;3.95;2.30;;;;;;;20.00;50.02;100973.00;11300970;26;20030;-86
2024/04/16 02:21:17;;;;;;;6.07;2.83;;;;;;;19.95;50.93;100974.88;11293275;26;19998;-85
2024/04/16 02:26:41;;;;;;;5.70;2.80;;;;;;;19.95;51.91;100964.16;11301880;26;20319;-85
2024/04/16 02:32:09;;;;;;;3.22;2.75;;;;;;;19.99;51.96;100957.81;11359225;26;20071;-85
2024/04/16 02:37:34;;;;;;;4.75;3.08;;;;;;;19.98;52.26;100978.38;11300693;26;20010;-83
2024/04/16 02:42:58;;;;;;;4.57;2.80;;;;;;;19.93;52.57;100969.53;11318148;26;20013;-83
2024/04/16 02:48:25;;;;;;;4.97;2.80;;;;;;;19.85;53.19;100975.03;11282124;26;20392;-86
2024/04/16 02:53:49;;;;;;;6.13;2.77;;;;;;;19.78;53.57;100991.25;11198167;26;20007;-85
2024/04/16 02:59:15;;;;;;;3.45;2.65;;;;;;;19.79;53.56;100990.34;11245461;26;20031;-86
2024/04/16 03:04:42;;;;;;;5.88;2.70;;;;;;;19.83;52.67;100986.69;11285083;26;20020;-87
2024/04/16 03:10:10;;;;;;;3.00;2.40;;;;;;;19.85;52.28;100992.91;11277820;26;20571;-86
2024/04/16 03:15:34;;;;;;;;;;;;;;;19.93;51.65;100990.97;11284328;26;20010;-87
2024/04/16 03:21:17;;;;;;;3.17;2.50;;;;;;;19.92;51.53;101004.41;11224178;26;19931;-85
2024/04/16 03:26:42;;;;;;;4.32;2.50;;;;;;;19.94;50.58;101003.47;11253586;26;19995;-87
2024/04/16 03:32:07;;;;;;;8.82;3.28;;;;;;;19.99;49.96;101000.69;11247607;26;20013;-86
2024/04/16 03:37:37;;;;;;;4.63;2.60;;;;;;;20.02;49.63;101009.56;11277468;26;20002;-87
2024/04/16 03:43:02;;;;;;;8.32;2.75;;;;;;;20.06;49.17;101008.59;11326049;26;19999;-86
2024/04/16 03:48:27;;;;;;;4.63;2.22;;;;;;;20.08;49.03;101019.28;11275565;26;19999;-84
2024/04/16 03:53:54;;;;;;;4.13;2.65;;;;;;;20.14;49.87;101029.91;11320369;26;19999;-86
2024/04/16 03:59:37;;;;;;;5.72;2.75;;;;;;;20.23;50.06;101022.53;11324158;26;20014;-87
2024/04/16 04:05:01;;;;;;;3.33;2.60;;;;;;;20.37;49.92;101033.03;11297342;26;20014;-87
2024/04/16 04:10:31;;;;;;;4.18;2.30;;;;;;;20.54;49.52;101021.97;11304904;26;20075;-86
2024/04/16 04:15:56;;;;;;;3.95;2.42;;;;;;;20.71;48.48;101022.47;11261438;26;19995;-86
2024/04/16 04:21:21;;;;;;;4.53;2.75;;;;;;;20.88;48.56;101032.81;11259910;26;20010;-85
2024/04/16 04:26:49;;;;;;;5.57;2.72;;;;;;;21.05;48.74;101019.91;11309712;26;20074;-85
2024/04/16 04:32:13;;;;;;;3.22;2.45;;;;;;;21.21;47.65;101013.28;11276080;26;20001;-86
2024/04/16 04:37:38;;;;;;;5.55;2.55;;;;;;;21.47;47.17;101016.22;11294461;26;19994;-87
2024/04/16 04:43:05;;;;;;;6.35;2.65;;;;;;;21.64;46.98;101022.97;11154953;26;20456;-87
2024/04/16 04:48:31;;;;;;;4.80;2.30;;;;;;;21.72;46.39;101026.34;11203987;26;20828;-86
2024/04/16 04:53:56;;;;;;;5.82;2.50;;;;;;;21.98;46.27;101034.66;11287884;26;19999;-86
2024/04/16 04:59:23;;;;;;;3.25;2.42;;;;;;;22.26;45.66;101034.75;11182662;26;20003;-86
2024/04/16 05:04:50;;;;;;;3.63;2.65;;;;;;;22.53;45.79;101047.41;11203198;26;20009;-86
2024/04/16 05:10:14;;;;;;;5.57;2.50;;;;;;;22.64;46.64;101037.22;11343399;26;20017;-87
2024/04/16 05:15:42;;;;;;;4.82;2.55;;;;;;;22.82;46.92;101032.25;11296633;26;20009;-89
2024/04/16 05:21:07;;;;;;;6.55;2.80;;;;;;;23.14;46.92;101031.25;11296578;26;20086;-85
2024/04/16 05:26:32;;;;;;;4.18;2.17;;;;;;;23.52;45.83;101024.63;11325597;26;20008;-86
2024/04/16 05:32:00;;;;;;;6.30;2.90;;;;;;;23.71;45.26;101021.25;11228974;26;20013;-87
2024/04/16 05:37:27;;;;;;;6.18;2.42;;;;;;;24.02;44.32;101018.38;11311972;26;20006;-84
2024/04/16 05:42:52;;;;;;;6.03;2.38;;;;;;;24.21;43.61;101010.53;11301091;26;19994;-86
2024/04/16 05:48:19;;;;;;;6.18;3.08;;;;;;;24.15;43.38;101013.44;11331310;26;20439;-85
2024/04/16 05:53:43;;;;;;;4.25;2.22;;;;;;;24.00;43.76;101000.50;11225722;26;20071;-85
2024/04/16 05:59:08;;;;;;;4.55;2.67;;;;;;;24.09;43.34;100998.31;11259429;26;20026;-86
2024/04/16 06:04:35;;;;;;;6.10;2.38;;;;;;;24.41;42.66;100999.88;11250576;26;20014;-87
2024/04/16 06:09:59;;;;;;;7.80;2.70;;;;;;;24.82;41.88;101021.69;11249148;26;19995;-87
2024/04/16 06:15:23;;;;;;;3.95;2.67;;;;;;;25.22;40.09;101021.03;11265658;26;20003;-87
2024/04/16 06:20:50;;;;;;;4.13;2.97;;;;;;;25.42;39.47;101027.38;11226991;26;20014;-87
2024/04/16 06:26:14;;;;;;;4.95;2.00;;;;;;;25.66;38.12;101032.75;11244604;26;20002;-87
2024/04/16 06:31:38;;;;;;;4.43;2.40;;;;;;;26.11;37.13;101025.34;11180214;26;20335;-89
2024/04/16 06:37:06;;;;;;;6.47;2.33;;;;;;;26.46;35.39;101001.22;11311836;26;20025;-86
2024/04/16 06:42:31;;;;;;;5.53;2.20;;;;;;;26.66;33.47;101009.28;11356894;26;20006;-86
2024/04/16 06:47:55;;;;;;;5.38;2.30;;;;;;;26.86;33.75;101003.81;11304792;26;20905;-87
2024/04/16 06:53:23;;;;;;;5.50;2.50;;;;;;;27.14;33.52;101016.94;11255498;26;20006;-86
2024/04/16 06:58:47;;;;;;;;;;;;;;;27.04;33.53;101002.09;11268692;26;20663;-87
2024/04/16 07:04:13;;;;;;;5.50;2.40;;;;;;;27.19;32.80;101011.28;11252443;26;19924;-87
2024/04/16 07:10:04;;;;;;;3.88;2.03;;;;;;;27.55;32.32;100979.66;11237840;26;20037;-87
2024/04/16 07:15:29;;;;;;;4.78;2.20;;;;;;;27.19;32.52;101005.84;11280614;26;20002;-87
2024/04/16 07:20:54;;;;;;;5.57;2.13;;;;;;;27.29;32.75;101002.63;11323421;26;20044;-86
2024/04/16 07:26:22;;;;;;;3.90;2.08;;;;;;;27.67;32.44;100995.28;11269297;26;20018;-90
2024/04/16 07:31:46;;;;;;;4.25;2.35;;;;;;;27.41;31.72;101002.97;11216645;26;20450;-92
2024/04/16 07:37:12;;;;;;;4.80;1.98;;;;;;;27.42;31.59;101019.16;11302291;26;19998;-96
2024/04/16 07:42:40;;;;;;;3.60;2.40;;;;;;;27.44;30.77;101010.97;11320136;26;20021;-89
2024/04/16 07:48:06;;;;;;;3.80;1.90;;;;;;;27.25;30.33;101027.25;11257545;26;20003;-86
2024/04/16 07:53:31;;;;;;;6.97;2.17;;;;;;;27.21;30.41;101031.97;11280938;26;20039;-87
2024/04/16 07:58:58;;;;;;;4.00;1.98;;;;;;;27.40;29.84;101026.50;11272781;26;20012;-87
2024/04/16 08:04:22;;;;;;;3.78;2.15;;;;;;;28.31;28.68;101029.94;11307974;26;20400;-88
2024/04/16 08:09:51;;;;;;;3.38;2.17;;;;;;;28.93;28.04;101025.66;11261705;26;20005;-87
2024/04/16 08:15:18;;;;;;;3.88;2.15;;;;;;;29.43;27.39;101036.38;11294306;26;20538;-88
2024/04/16 08:20:42;;;;;;;4.10;1.85;;;;;;;29.44;26.44;101026.34;11252326;26;20396;-87
2024/04/16 08:26:09;;;;;;;4.05;1.98;;;;;;;29.69;26.34;101023.94;11226362;26;19999;-90
2024/04/16 08:31:35;;;;;;;;;;;;;;;30.16;25.83;101025.66;11282873;26;20063;-88
2024/04/16 08:36:59;;;;;;;5.07;2.03;;;;;;;29.94;26.01;101021.53;11302199;26;19947;-88
2024/04/16 08:42:25;;;;;;;3.40;1.95;;;;;;;29.74;26.14;101019.09;11236815;26;20465;-88
2024/04/16 08:47:54;;;;;;;3.42;1.77;;;;;;;29.28;26.68;101010.00;11227156;26;19999;-87
2024/04/16 08:53:19;;;;;;;4.10;2.22;;;;;;;29.13;27.43;101003.63;11202521;26;20000;-86
2024/04/16 08:58:44;;;;;;;5.28;1.75;;;;;;;29.35;26.72;100981.50;11212521;26;20002;-86
2024/04/16 09:04:12;;;;;;;4.63;2.20;;;;;;;29.20;26.34;101001.44;11277693;26;20021;-84
2024/04/16 09:09:36;;;;;;;2.95;2.15;;;;;;;29.42;26.54;100990.19;11228237;26;20017;-84
2024/04/16 09:15:01;;;;;;;2.58;1.90;;;;;;;29.87;25.79;100989.28;11249920;26;20003;-85
2024/04/16 09:20:29;;;;;;;6.05;2.45;;;;;;;30.54;24.99;100983.28;11224931;26;20449;-86
2024/04/16 09:25:55;;;;;;;8.07;2.97;;;;;;;29.79;25.93;100999.78;11286469;26;19998;-85
2024/04/16 09:31:20;;;;;;;5.47;3.03;;;;;;;29.16;26.45;100978.09;11375973;25;20071;-83
2024/04/16 09:36:52;;;;;;;6.90;2.60;;;;;;;28.72;28.88;100967.91;11231284;26;20136;-84
2024/04/16 09:42:16;;;;;;;6.63;2.67;;;;;;;28.53;29.48;100965.34;11249872;26;20017;-84
2024/04/16 09:47:41;;;;;;;7.55;3.15;;;;;;;28.40;30.46;100974.25;11199971;26;19999;-84
2024/04/16 09:53:10;;;;;;;9.05;2.58;;;;;;;28.95;29.31;100968.47;11223312;26;20002;-84
2024/04/16 09:58:36;;;;;;;4.75;2.47;;;;;;;28.98;29.25;100961.00;11337564;26;20038;-87
2024/04/16 10:04:01;;;;;;;7.97;3.10;;;;;;;29.64;28.86;100972.50;11334725;26;20828;-83
2024/04/16 10:09:28;;;;;;;5.40;2.53;;;;;;;30.06;28.08;100969.00;11288542;26;20006;-85
2024/04/16 10:14:53;;;;;;;6.20;2.60;;;;;;;30.31;27.65;100981.13;11282628;26;19999;-86
2024/04/16 10:20:23;;;;;;;9.43;2.85;;;;;;;30.27;27.59;100955.91;11244609;26;20089;-85
2024/04/16 10:25:55;;;;;;;5.88;2.78;;;;;;;29.93;28.11;100986.25;11278329;26;20030;-86
2024/04/16 10:31:20;;;;;;;4.95;2.38;;;;;;;29.65;27.89;100982.44;11272864;26;20026;-88
2024/04/16 10:36:44;;;;;;;8.30;2.67;;;;;;;29.23;28.55;100974.91;11207013;26;20050;-85
2024/04/16 10:42:12;;;;;;;8.20;2.67;;;;;;;29.76;28.10;100973.59;11243579;26;20028;-87
2024/04/16 10:47:38;;;;;;;5.43;3.00;;;;;;;29.35;28.11;100975.19;11245960;26;20029;-86
2024/04/16 10:53:03;;;;;;;7.70;3.00;;;;;;;29.22;28.27;100953.25;11236556;26;20017;-87
2024/04/16 10:58:30;;;;;;;7.50;2.92;;;;;;;28.97;28.17;100958.38;11221797;26;20047;-86
2024/04/16 11:03:55;;;;;;;7.03;3.10;;;;;;;28.57;28.48;100946.13;11308968;26;19995;-89
2024/04/16 11:09:19;;;;;;;5.50;2.40;;;;;;;28.10;28.87;100955.91;11264466;26;20555;-87
2024/04/16 11:14:47;;;;;;;5.95;2.92;;;;;;;27.74;29.15;100953.31;11241351;26;19995;-86
2024/04/16 11:20:12;;;;;;;6.10;2.63;;;;;;;27.59;28.59;100950.50;11265404;26;20009;-87
2024/04/16 11:25:37;;;;;;;9.40;3.47;;;;;;;27.74;28.74;100944.28;11275128;26;19994;-87
2024/04/16 11:31:04;;;;;;;7.68;2.70;;;;;;;27.82;28.52;100923.06;11254166;26;19995;-86
2024/04/16 11:36:28;;;;;;;7.38;3.40;;;;;;;28.11;28.26;100937.75;11246570;26;20003;-84
2024/04/16 11:41:53;;;;;;;6.68;2.75;;;;;;;28.36;27.20;100904.72;11249974;26;20014;-84
2024/04/16 11:47:20;;;;;;;6.85;2.92;;;;;;;28.33;26.92;100896.78;11228937;26;20014;-85
2024/04/16 11:52:44;;;;;;;;;;;;;;;28.71;26.30;100859.25;11298695;26;20369;-84
2024/04/16 11:58:10;;;;;;;7.10;2.90;;;;;;;28.39;26.28;100889.16;11212493;26;20360;-85
2024/04/16 12:03:37;;;;;;;6.25;2.63;;;;;;;28.17;26.19;100899.44;11198739;26;20265;-84
2024/04/16 12:09:03;;;;;;;5.78;3.20;;;;;;;28.00;26.37;100905.78;11211199;26;20007;-82
2024/04/16 12:14:31;;;;;;;7.13;3.03;;;;;;;27.83;26.63;100904.94;11255469;26;19999;-82
2024/04/16 12:20:05;;;;;;;6.87;3.50;;;;;;;27.69;26.63;100913.81;11225700;26;20002;-86
2024/04/16 12:25:29;;;;;;;6.68;3.10;;;;;;;27.29;27.09;100906.84;11241525;26;19998;-83
2024/04/16 12:30:53;;;;;;;6.40;3.17;;;;;;;27.02;27.66;100898.28;11298493;26;19999;-84
2024/04/16 12:36:22;;;;;;;4.45;2.78;;;;;;;26.67;28.00;100902.69;11248199;26;20751;-83
2024/04/16 12:41:47;;;;;;;7.93;3.42;;;;;;;26.39;28.36;100895.00;11252289;26;20010;-82
2024/04/16 12:47:12;;;;;;;8.95;2.70;;;;;;;26.21;28.90;100879.63;11185402;26;20003;-84
2024/04/16 12:52:41;;;;;;;6.28;3.20;;;;;;;26.13;29.33;100881.78;11264731;26;20013;-83
2024/04/16 12:58:05;;;;;;;7.07;3.10;;;;;;;25.95;29.39;100837.53;11295523;26;20017;-83
2024/04/16 13:03:30;;;;;;;10.73;3.28;;;;;;;25.72;29.25;100838.63;11292726;26;20009;-84
2024/04/16 13:08:57;;;;;;;13.15;3.92;;;;;;;25.74;29.48;100822.28;11201243;26;19999;-83
2024/04/16 13:14:22;;;;;;;9.98;3.72;;;;;;;25.67;29.44;100824.41;11219773;26;20009;-82
2024/04/16 13:19:50;;;;;;;6.55;3.00;;;;;;;25.82;28.99;100817.41;11243919;26;20079;-81
2024/04/16 13:25:17;;;;;;;10.68;3.38;;;;;;;25.76;28.41;100828.53;11219923;26;20003;-83
2024/04/16 13:30:42;;;;;;;6.30;3.00;;;;;;;25.84;28.00;100814.66;11221064;26;20388;-85
2024/04/16 13:36:08;;;;;;;9.32;3.28;;;;;;;25.84;27.86;100807.41;11216510;26;20076;-83
2024/04/16 13:41:35;;;;;;;8.73;3.22;;;;;;;25.90;27.92;100788.19;11244999;26;20076;-83
2024/04/16 13:47:00;;;;;;;8.07;3.13;;;;;;;26.28;27.90;100786.38;11200357;26;20023;-83
2024/04/16 13:52:25;;;;;;;7.55;3.05;;;;;;;26.64;28.02;100780.97;11292772;26;20022;-83
2024/04/16 13:57:53;;;;;;;5.95;2.50;;;;;;;26.65;27.64;100790.81;11294797;26;20018;-85
2024/04/16 14:03:17;;;;;;;7.22;3.20;;;;;;;26.55;27.46;100800.38;11217227;26;20002;-84
2024/04/16 14:08:42;;;;;;;8.35;3.35;;;;;;;26.60;27.96;100782.06;11237476;26;20030;-84
2024/04/16 14:14:09;;;;;;;8.15;3.13;;;;;;;26.61;28.00;100789.22;11148048;26;20021;-85
2024/04/16 14:19:33;;;;;;;;;;;;;;;26.58;27.97;100770.44;11269282;26;20002;-83
2024/04/16 14:24:57;;;;;;;6.63;3.40;;;;;;;26.10;28.67;100752.94;11205047;26;19925;-85
2024/04/16 14:30:24;;;;;;;6.90;3.13;;;;;;;26.19;28.40;100746.16;11280515;26;20072;-83
2024/04/16 14:35:48;;;;;;;6.32;2.95;;;;;;;26.07;28.12;100757.59;11244021;26;20011;-85
2024/04/16 14:41:13;;;;;;;7.35;2.97;;;;;;;25.84;28.80;100753.31;11298444;26;20003;-85
2024/04/16 14:46:44;;;;;;;8.65;3.38;;;;;;;25.57;29.04;100759.97;11270986;26;20860;-76
2024/04/16 14:52:10;;;;;;;10.07;3.95;;;;;;;25.38;29.86;100747.31;11265569;26;20013;-82
2024/04/16 14:57:34;;;;;;;4.50;2.75;;;;;;;25.23;30.53;100736.31;11226942;26;19995;-83
2024/04/16 15:03:01;;;;;;;7.25;2.92;;;;;;;25.24;31.18;100738.06;11220437;26;20698;-77
2024/04/16 15:08:26;;;;;;;7.25;3.08;;;;;;;25.19;31.60;100729.28;11288792;26;20451;-82
2024/04/16 15:13:50;;;;;;;6.47;3.42;;;;;;;25.09;31.58;100736.91;11222173;26;20788;-78
2024/04/16 15:19:18;;;;;;;8.00;3.10;;;;;;;25.06;31.30;100706.47;11242623;26;20017;-78
2024/04/16 15:24:42;;;;;;;9.75;2.75;;;;;;;25.04;31.33;100703.84;11250861;26;20072;-80
2024/04/16 15:30:07;;;;;;;6.72;3.08;;;;;;;25.06;31.30;100730.78;11241969;26;20003;-83
2024/04/16 15:35:48;;;;;;;7.05;3.35;;;;;;;24.94;31.19;100727.66;11221515;26;19998;-86
2024/04/16 15:41:14;;;;;;;8.68;3.22;;;;;;;24.87;31.20;100723.47;11222513;26;20014;-82
2024/04/16 15:46:38;;;;;;;6.13;3.25;;;;;;;24.80;31.50;100722.00;11249826;26;20013;-89
2024/04/16 15:52:06;;;;;;;6.70;2.63;;;;;;;24.74;31.62;100713.28;11266327;26;20011;-85
2024/04/16 15:57:31;;;;;;;8.63;3.33;;;;;;;24.60;31.99;100697.66;11249253;26;20687;-86
2024/04/16 16:02:57;;;;;;;6.93;3.33;;;;;;;24.51;32.14;100693.53;11251647;26;20591;-84
2024/04/16 16:08:25;;;;;;;7.38;3.05;;;;;;;24.50;31.88;100675.56;11216052;26;20035;-87
2024/04/16 16:13:49;;;;;;;7.60;3.42;;;;;;;24.33;31.82;100666.47;11213561;26;20014;-82
2024/04/16 16:19:14;;;;;;;9.73;3.50;;;;;;;24.05;31.75;100624.41;11221850;26;20011;-81
2024/04/16 16:24:42;;;;;;;8.60;3.58;;;;;;;23.82;32.11;100619.13;11194423;26;20411;-84
2024/04/16 16:30:08;;;;;;;14.95;3.83;;;;;;;23.61;32.29;100603.81;11232687;26;20003;-84
2024/04/16 16:35:34;;;;;;;8.43;3.00;;;;;;;23.49;32.42;100613.28;11291041;26;20080;-88
2024/04/16 16:41:01;;;;;;;10.45;3.08;;;;;;;23.33;32.57;100615.66;11256036;26;19999;-88
2024/04/16 16:46:25;;;;;;;7.40;3.40;;;;;;;23.28;32.39;100603.31;11277674;26;20046;-84
2024/04/16 16:51:51;;;;;;;6.13;3.35;;;;;;;23.35;32.17;100624.56;11306132;26;20067;-85
2024/04/16 16:57:20;;;;;;;7.78;3.05;;;;;;;23.29;32.66;100649.06;11243231;26;20018;-83
2024/04/16 17:02:46;;;;;;;7.18;3.05;;;;;;;23.14;33.00;100659.53;11250488;26;20465;-83
2024/04/16 17:08:11;;;;;;;7.38;3.50;;;;;;;23.01;33.08;100646.53;11229146;26;20017;-87
2024/04/16 17:13:38;;;;;;;7.88;2.92;;;;;;;22.95;33.11;100654.84;11232637;26;20014;-88
2024/04/16 17:19:02;;;;;;;7.27;3.30;;;;;;;22.77;33.67;100655.53;11263557;26;20009;-83
2024/04/16 17:24:26;;;;;;;8.00;3.40;;;;;;;22.62;34.28;100667.66;11299889;26;20453;-86
2024/04/16 17:29:54;;;;;;;7.75;3.25;;;;;;;22.54;34.13;100668.88;11213245;26;20051;-89
2024/04/16 17:35:18;;;;;;;4.50;2.88;;;;;;;22.49;34.23;100665.47;11300203;26;20033;-86
2024/04/16 17:40:43;;;;;;;8.07;3.75;;;;;;;22.42;34.66;100696.19;11244809;26;19999;-89
2024/04/16 17:46:10;;;;;;;8.95;3.28;;;;;;;22.34;34.89;100691.06;11291192;26;20075;-86
2024/04/16 17:51:35;;;;;;;5.32;2.90;;;;;;;22.23;35.45;100666.38;11255997;26;20031;-85
2024/04/16 17:56:59;;;;;;;8.05;3.17;;;;;;;22.21;34.96;100654.78;11258797;26;20009;-80
2024/04/16 18:02:26;;;;;;;6.07;2.72;;;;;;;22.16;35.60;100630.72;11239539;26;20151;-89
2024/04/16 18:07:51;;;;;;;;;;;;;;;22.17;35.20;100610.97;11222332;26;20088;-88
2024/04/16 18:13:16;;;;;;;6.05;3.08;;;;;;;22.17;35.92;100607.41;11266485;26;19939;-83
2024/04/16 18:18:44;;;;;;;7.75;3.00;;;;;;;22.24;36.26;100599.06;11245578;26;20017;-81
2024/04/16 18:24:08;;;;;;;10.07;3.20;;;;;;;22.31;36.93;100602.44;11280054;26;20015;-84
2024/04/16 18:29:33;;;;;;;11.82;2.75;;;;;;;22.31;36.65;100613.19;11327962;26;19999;-85
2024/04/16 18:35:00;;;;;;;4.10;2.70;;;;;;;22.33;36.86;100621.19;11285373;26;20004;-87
2024/04/16 18:40:24;;;;;;;9.17;2.97;;;;;;;22.41;36.83;100620.00;11243561;26;20059;-87
2024/04/16 18:45:48;;;;;;;6.13;3.17;;;;;;;22.37;36.89;100630.91;11265792;26;20001;-92
2024/04/16 18:51:15;;;;;;;8.32;2.58;;;;;;;22.36;36.80;100634.53;11304708;26;19998;-86
2024/04/16 18:56:39;;;;;;;4.35;2.40;;;;;;;22.29;36.81;100631.19;11280051;26;20725;-79
2024/04/16 19:02:03;;;;;;;5.93;2.88;;;;;;;22.22;37.73;100635.91;11335184;26;20001;-87
2024/04/16 19:07:31;;;;;;;9.23;2.97;;;;;;;22.17;38.54;100662.06;11279514;26;20032;-85
2024/04/16 19:12:55;;;;;;;6.20;2.87;;;;;;;22.07;39.44;100659.72;11274769;26;21413;-85
2024/04/16 19:18:21;;;;;;;4.35;2.28;;;;;;;21.98;39.90;100658.25;11277633;26;19999;-84
2024/04/16 19:23:48;;;;;;;5.15;2.85;;;;;;;21.94;41.44;100661.91;11241736;26;20084;-84
2024/04/16 19:29:12;;;;;;;8.07;3.20;;;;;;;21.91;42.56;100651.28;11162427;26;20016;-82
2024/04/16 19:34:37;;;;;;;4.88;2.67;;;;;;;21.83;44.40;100631.81;11176610;26;20004;-84
2024/04/16 19:40:04;;;;;;;6.40;2.85;;;;;;;21.81;46.88;100633.66;11187965;26;20003;-82
2024/04/16 19:45:28;;;;;;;7.63;3.13;;;;;;;21.81;48.11;100631.88;11205291;26;20015;-85
2024/04/16 19:50:53;;;;;;;6.60;3.28;;;;;;;21.85;48.97;100625.47;11185200;26;19996;-85
2024/04/16 19:56:20;;;;;;;7.35;3.17;;;;;;;21.84;50.27;100606.72;11238724;26;20424;-86
2024/04/16 20:01:46;;;;;;;7.07;3.60;;;;;;;21.69;52.02;100591.94;11217749;26;19999;-85
2024/04/16 20:07:11;;;;;;;10.68;4.05;;;;;;;21.65;52.23;100574.19;11154978;26;20015;-86
2024/04/16 20:12:38;;;;;;;5.20;3.53;;;;;;;21.63;52.91;100556.34;11130402;26;20004;-87
2024/04/16 20:18:11;;;;;;;7.47;3.33;;;;;;;21.66;52.34;100559.78;11170966;26;20568;-86
2024/04/16 20:23:35;;;;;;;5.80;3.58;;;;;;;21.68;53.57;100559.75;11175498;26;20003;-85
2024/04/16 20:29:04;;;;;;;13.18;4.15;;;;;;;21.67;54.16;100549.94;11228529;26;20003;-86
2024/04/16 20:34:28;;;;;;;8.45;3.70;;;;;;;21.64;55.32;100540.19;11274291;26;20031;-85
2024/04/16 20:39:52;;;;;;;9.50;3.47;;;;;;;21.61;56.61;100534.91;11273811;26;19998;-84
2024/04/16 20:45:19;;;;;;;11.30;3.70;;;;;;;21.64;57.33;100552.75;11203653;26;20014;-86
2024/04/16 20:50:43;;;;;;;7.35;4.13;;;;;;;21.60;58.75;100575.25;11178527;26;19999;-87
2024/04/16 20:56:07;;;;;;;10.15;3.88;;;;;;;21.59;59.72;100579.75;11235579;26;19995;-84
2024/04/16 21:01:35;;;;;;;6.75;3.88;;;;;;;21.57;61.05;100591.47;11174308;26;20085;-85
2024/04/16 21:06:59;;;;;;;10.73;3.90;;;;;;;21.56;61.26;100595.09;11148030;26;20011;-86
2024/04/16 21:12:23;;;;;;;8.57;3.60;;;;;;;21.64;60.85;100615.41;11175612;26;19999;-81
2024/04/16 21:17:50;;;;;;;6.00;3.72;;;;;;;21.77;60.37;100622.16;11150515;26;20007;-80
2024/04/16 21:23:16;;;;;;;8.00;4.22;;;;;;;21.83;59.64;100613.00;11228657;26;20050;-79
2024/04/16 21:28:40;;;;;;;6.90;3.60;;;;;;;21.82;59.73;100612.13;11195232;26;20008;-81
2024/04/16 21:34:07;;;;;;;6.72;3.45;;;;;;;21.81;61.33;100612.16;11204196;26;20035;-80
2024/04/16 21:39:32;;;;;;;9.53;3.50;;;;;;;21.79;61.92;100603.28;11101905;26;20044;-82
2024/04/16 21:44:56;;;;;;;8.07;3.72;;;;;;;21.81;61.86;100596.03;11238113;26;20013;-81
2024/04/16 21:50:23;;;;;;;5.38;3.90;;;;;;;21.87;61.51;100599.41;11202367;26;20055;-81
2024/04/16 21:55:48;;;;;;;7.87;3.63;;;;;;;21.92;60.14;100588.53;11230758;26;19999;-82
2024/04/16 22:01:13;;;;;;;7.35;3.67;;;;;;;21.96;59.59;100562.44;11230568;26;20014;-81
2024/04/16 22:06:40;;;;;;;8.43;3.53;;;;;;;21.95;58.75;100540.00;11217555;26;20004;-82
2024/04/16 22:12:04;;;;;;;10.37;3.50;;;;;;;21.95;58.25;100529.25;11196575;26;20018;-81
2024/04/16 22:17:28;;;;;;;7.78;3.55;;;;;;;21.98;56.80;100518.44;11242968;26;20010;-82
2024/04/16 22:22:56;;;;;;;5.30;3.67;;;;;;;22.03;55.31;100523.66;11256542;26;19996;-79
2024/04/16 22:28:20;;;;;;;10.53;3.57;;;;;;;22.01;54.60;100539.81;11232483;26;20591;-80
2024/04/16 22:33:45;;;;;;;8.25;4.05;;;;;;;22.05;53.73;100548.69;11198187;26;20016;-86
2024/04/16 22:39:13;;;;;;;8.20;3.80;;;;;;;22.07;53.30;100541.41;11271300;26;20083;-85
2024/04/16 22:44:37;;;;;;;6.25;3.75;;;;;;;22.06;53.61;100542.34;11206081;26;20463;-87
2024/04/16 22:50:01;;;;;;;6.47;3.50;;;;;;;22.06;53.51;100532.47;11250252;26;20003;-87
2024/04/16 22:55:28;;;;;;;8.20;4.05;;;;;;;22.09;52.60;100540.44;11238058;26;20027;-87
2024/04/16 23:00:53;;;;;;;5.20;3.33;;;;;;;22.13;51.98;100527.75;11208649;26;20008;-86
2024/04/16 23:06:17;;;;;;;7.72;4.10;;;;;;;22.13;51.32;100539.38;11226103;26;20027;-85
2024/04/16 23:11:45;;;;;;;9.95;3.83;;;;;;;22.15;50.33;100544.72;11235502;26;20002;-85
2024/04/16 23:17:11;;;;;;;9.80;4.05;;;;;;;22.11;49.41;100532.31;11234256;26;20007;-85
2024/04/16 23:22:35;;;;;;;6.43;3.67;;;;;;;22.04;49.60;100525.41;11210009;26;20351;-86
2024/04/16 23:28:03;;;;;;;6.50;3.90;;;;;;;21.99;49.54;100511.25;11221495;26;19999;-85
2024/04/16 23:33:27;;;;;;;10.07;3.92;;;;;;;21.89;49.46;100518.72;11264075;26;20003;-85
2024/04/16 23:38:54;;;;;;;12.27;3.90;;;;;;;21.79;49.83;100517.28;11235537;26;20004;-86
2024/04/16 23:44:21;;;;;;;8.13;3.42;;;;;;;21.73;50.04;100504.03;11255098;26;20026;-84
2024/04/16 23:49:46;;;;;;;7.22;3.50;;;;;;;21.61;50.81;100510.72;11246118;26;20017;-86
2024/04/16 23:55:11;;;;;;;8.57;3.50;;;;;;;21.48;51.05;100512.94;11230116;26;20087;-86
